sensor_id;sensor_type;location;lat;lon;timestamp;P1;durP1;ratioP1;P2;durP2;ratioP2
14994;SDS011;7593;49.006;8.372;2023-12-28T00:01:00;12.07;;;8.37;;
14994;SDS011;7593;49.006;8.372;2023-12-28T00:03:27;21.30;;;11.37;;
14994;SDS011;7593;49.006;8.372;2023-12-28T00:05:54;15.97;;;10.60;;
14994;SDS011;7593;49.006;8.372;2023-12-28T00:08:22;16.30;;;9.67;;
14994;SDS011;7593;49.006;8.372;2023-12-28T00:10:50;19.37;;;10.63;;
14994;SDS011;7593;49.006;8.372;2023-12-28T00:13:17;12.27;;;8.60;;
14994;SDS011;7593;49.006;8.372;2023-12-28T00:15:43;12.47;;;8.80;;
14994;SDS011;7593;49.006;8.372;2023-12-28T00:18:11;13.97;;;9.80;;
14994;SDS011;7593;49.006;8.372;2023-12-28T00:20:38;11.07;;;7.80;;
14994;SDS011;7593;49.006;8.372;2023-12-28T00:23:05;9.40;;;7.50;;
14994;SDS011;7593;49.006;8.372;2023-12-28T00:25:33;11.60;;;8.13;;
14994;SDS011;7593;49.006;8.372;2023-12-28T00:28:00;9.93;;;7.40;;
14994;SDS011;7593;49.006;8.372;2023-12-28T00:30:26;9.93;;;7.60;;
14994;SDS011;7593;49.006;8.372;2023-12-28T00:32:53;10.67;;;6.83;;
14994;SDS011;7593;49.006;8.372;2023-12-28T00:35:23;8.97;;;7.20;;
14994;SDS011;7593;49.006;8.372;2023-12-28T00:37:50;8.27;;;6.87;;
14994;SDS011;7593;49.006;8.372;2023-12-28T00:40:17;10.13;;;7.73;;
14994;SDS011;7593;49.006;8.372;2023-12-28T00:42:45;8.70;;;6.73;;
14994;SDS011;7593;49.006;8.372;2023-12-28T00:45:12;9.23;;;7.40;;
14994;SDS011;7593;49.006;8.372;2023-12-28T00:47:39;9.63;;;6.83;;
14994;SDS011;7593;49.006;8.372;2023-12-28T00:50:08;8.47;;;6.80;;
14994;SDS011;7593;49.006;8.372;2023-12-28T00:52:36;14.47;;;7.00;;
14994;SDS011;7593;49.006;8.372;2023-12-28T00:55:03;9.83;;;7.30;;
14994;SDS011;7593;49.006;8.372;2023-12-28T00:57:31;11.83;;;7.00;;
14994;SDS011;7593;49.006;8.372;2023-12-28T00:59:59;8.87;;;6.67;;
14994;SDS011;7593;49.006;8.372;2023-12-28T01:02:26;9.70;;;7.30;;
14994;SDS011;7593;49.006;8.372;2023-12-28T01:04:53;8.90;;;7.20;;
14994;SDS011;7593;49.006;8.372;2023-12-28T01:07:20;9.87;;;7.60;;
14994;SDS011;7593;49.006;8.372;2023-12-28T01:09:47;11.37;;;7.73;;
14994;SDS011;7593;49.006;8.372;2023-12-28T01:12:13;9.27;;;6.77;;
14994;SDS011;7593;49.006;8.372;2023-12-28T01:14:40;8.50;;;6.90;;
14994;SDS011;7593;49.006;8.372;2023-12-28T01:17:08;9.13;;;6.80;;
14994;SDS011;7593;49.006;8.372;2023-12-28T01:19:35;8.23;;;6.37;;
14994;SDS011;7593;49.006;8.372;2023-12-28T01:22:02;11.23;;;8.60;;
14994;SDS011;7593;49.006;8.372;2023-12-28T01:24:29;9.30;;;6.67;;
14994;SDS011;7593;49.006;8.372;2023-12-28T01:26:55;8.87;;;6.97;;
14994;SDS011;7593;49.006;8.372;2023-12-28T01:29:22;10.90;;;6.80;;
14994;SDS011;7593;49.006;8.372;2023-12-28T01:31:49;10.83;;;6.90;;
14994;SDS011;7593;49.006;8.372;2023-12-28T01:34:17;9.00;;;6.70;;
14994;SDS011;7593;49.006;8.372;2023-12-28T01:36:44;6.50;;;5.37;;
14994;SDS011;7593;49.006;8.372;2023-12-28T01:39:11;8.90;;;5.83;;
14994;SDS011;7593;49.006;8.372;2023-12-28T01:41:38;7.03;;;5.70;;
14994;SDS011;7593;49.006;8.372;2023-12-28T01:44:04;8.00;;;5.90;;
14994;SDS011;7593;49.006;8.372;2023-12-28T01:46:31;6.87;;;5.97;;
14994;SDS011;7593;49.006;8.372;2023-12-28T01:48:59;6.97;;;5.30;;
14994;SDS011;7593;49.006;8.372;2023-12-28T01:51:28;7.10;;;5.47;;
14994;SDS011;7593;49.006;8.372;2023-12-28T01:53:55;6.83;;;5.43;;
14994;SDS011;7593;49.006;8.372;2023-12-28T01:56:21;7.27;;;5.70;;
14994;SDS011;7593;49.006;8.372;2023-12-28T01:58:49;6.53;;;5.57;;
14994;SDS011;7593;49.006;8.372;2023-12-28T02:01:17;6.60;;;5.40;;
14994;SDS011;7593;49.006;8.372;2023-12-28T02:03:44;6.20;;;5.23;;
14994;SDS011;7593;49.006;8.372;2023-12-28T02:06:11;9.33;;;6.03;;
14994;SDS011;7593;49.006;8.372;2023-12-28T02:08:42;6.13;;;5.23;;
14994;SDS011;7593;49.006;8.372;2023-12-28T02:11:09;6.40;;;5.30;;
14994;SDS011;7593;49.006;8.372;2023-12-28T02:13:36;5.90;;;4.83;;
14994;SDS011;7593;49.006;8.372;2023-12-28T02:16:05;6.77;;;4.60;;
14994;SDS011;7593;49.006;8.372;2023-12-28T02:18:37;4.67;;;4.20;;
14994;SDS011;7593;49.006;8.372;2023-12-28T02:21:08;5.70;;;4.27;;
14994;SDS011;7593;49.006;8.372;2023-12-28T02:23:37;7.03;;;4.23;;
14994;SDS011;7593;49.006;8.372;2023-12-28T02:26:05;4.77;;;4.13;;
14994;SDS011;7593;49.006;8.372;2023-12-28T02:28:31;6.50;;;4.40;;
14994;SDS011;7593;49.006;8.372;2023-12-28T02:30:58;5.87;;;4.10;;
14994;SDS011;7593;49.006;8.372;2023-12-28T02:33:29;4.57;;;3.60;;
14994;SDS011;7593;49.006;8.372;2023-12-28T02:36:04;5.07;;;3.63;;
14994;SDS011;7593;49.006;8.372;2023-12-28T02:38:36;5.50;;;3.83;;
14994;SDS011;7593;49.006;8.372;2023-12-28T02:41:05;5.45;;;3.70;;
14994;SDS011;7593;49.006;8.372;2023-12-28T02:43:34;4.10;;;3.40;;
14994;SDS011;7593;49.006;8.372;2023-12-28T02:46:01;4.90;;;3.65;;
14994;SDS011;7593;49.006;8.372;2023-12-28T02:48:27;5.13;;;3.80;;
14994;SDS011;7593;49.006;8.372;2023-12-28T02:50:55;4.53;;;3.60;;
14994;SDS011;7593;49.006;8.372;2023-12-28T02:53:22;4.68;;;3.75;;
14994;SDS011;7593;49.006;8.372;2023-12-28T02:55:49;4.20;;;3.42;;
14994;SDS011;7593;49.006;8.372;2023-12-28T02:58:17;4.78;;;3.67;;
14994;SDS011;7593;49.006;8.372;2023-12-28T03:00:44;7.60;;;3.50;;
14994;SDS011;7593;49.006;8.372;2023-12-28T03:03:11;4.18;;;3.10;;
14994;SDS011;7593;49.006;8.372;2023-12-28T03:05:38;5.07;;;3.25;;
14994;SDS011;7593;49.006;8.372;2023-12-28T03:08:06;6.28;;;3.40;;
14994;SDS011;7593;49.006;8.372;2023-12-28T03:10:33;4.05;;;3.20;;
14994;SDS011;7593;49.006;8.372;2023-12-28T03:12:59;3.97;;;3.17;;
14994;SDS011;7593;49.006;8.372;2023-12-28T03:15:27;4.90;;;3.42;;
14994;SDS011;7593;49.006;8.372;2023-12-28T03:17:54;4.40;;;2.97;;
14994;SDS011;7593;49.006;8.372;2023-12-28T03:20:21;4.18;;;2.78;;
14994;SDS011;7593;49.006;8.372;2023-12-28T03:22:48;4.57;;;2.90;;
14994;SDS011;7593;49.006;8.372;2023-12-28T03:25:14;3.95;;;3.20;;
14994;SDS011;7593;49.006;8.372;2023-12-28T03:27:41;3.08;;;2.78;;
14994;SDS011;7593;49.006;8.372;2023-12-28T03:30:08;3.25;;;2.63;;
14994;SDS011;7593;49.006;8.372;2023-12-28T03:32:37;3.58;;;2.88;;
14994;SDS011;7593;49.006;8.372;2023-12-28T03:35:04;3.25;;;2.75;;
14994;SDS011;7593;49.006;8.372;2023-12-28T03:37:32;5.40;;;2.67;;
14994;SDS011;7593;49.006;8.372;2023-12-28T03:39:59;3.10;;;2.50;;
14994;SDS011;7593;49.006;8.372;2023-12-28T03:42:25;3.28;;;2.80;;
14994;SDS011;7593;49.006;8.372;2023-12-28T03:44:52;3.97;;;3.10;;
14994;SDS011;7593;49.006;8.372;2023-12-28T03:47:19;3.25;;;2.60;;
14994;SDS011;7593;49.006;8.372;2023-12-28T03:49:47;3.20;;;2.50;;
14994;SDS011;7593;49.006;8.372;2023-12-28T03:52:13;2.45;;;2.17;;
14994;SDS011;7593;49.006;8.372;2023-12-28T03:54:40;2.33;;;2.13;;
14994;SDS011;7593;49.006;8.372;2023-12-28T03:57:07;3.88;;;2.22;;
14994;SDS011;7593;49.006;8.372;2023-12-28T03:59:34;2.90;;;2.20;;
14994;SDS011;7593;49.006;8.372;2023-12-28T04:02:00;3.63;;;2.28;;
14994;SDS011;7593;49.006;8.372;2023-12-28T04:04:27;3.45;;;2.42;;
14994;SDS011;7593;49.006;8.372;2023-12-28T04:06:56;2.75;;;2.28;;
14994;SDS011;7593;49.006;8.372;2023-12-28T04:09:22;3.05;;;2.33;;
14994;SDS011;7593;49.006;8.372;2023-12-28T04:11:49;2.53;;;2.28;;
14994;SDS011;7593;49.006;8.372;2023-12-28T04:14:16;2.50;;;2.10;;
14994;SDS011;7593;49.006;8.372;2023-12-28T04:16:42;2.78;;;1.92;;
14994;SDS011;7593;49.006;8.372;2023-12-28T04:19:09;2.88;;;1.92;;
14994;SDS011;7593;49.006;8.372;2023-12-28T04:21:36;3.20;;;2.10;;
14994;SDS011;7593;49.006;8.372;2023-12-28T04:24:04;3.67;;;2.00;;
14994;SDS011;7593;49.006;8.372;2023-12-28T04:26:31;2.47;;;2.08;;
14994;SDS011;7593;49.006;8.372;2023-12-28T04:28:59;2.28;;;2.08;;
14994;SDS011;7593;49.006;8.372;2023-12-28T04:31:25;2.10;;;1.80;;
14994;SDS011;7593;49.006;8.372;2023-12-28T04:33:52;2.20;;;1.92;;
14994;SDS011;7593;49.006;8.372;2023-12-28T04:36:19;2.10;;;1.70;;
14994;SDS011;7593;49.006;8.372;2023-12-28T04:38:45;3.72;;;2.15;;
14994;SDS011;7593;49.006;8.372;2023-12-28T04:41:13;2.65;;;2.05;;
14994;SDS011;7593;49.006;8.372;2023-12-28T04:43:40;2.00;;;1.80;;
14994;SDS011;7593;49.006;8.372;2023-12-28T04:46:07;3.13;;;1.77;;
14994;SDS011;7593;49.006;8.372;2023-12-28T04:48:34;2.47;;;1.80;;
14994;SDS011;7593;49.006;8.372;2023-12-28T04:51:02;2.45;;;1.88;;
14994;SDS011;7593;49.006;8.372;2023-12-28T04:53:29;3.28;;;2.10;;
14994;SDS011;7593;49.006;8.372;2023-12-28T04:55:55;2.33;;;1.77;;
14994;SDS011;7593;49.006;8.372;2023-12-28T04:58:23;3.95;;;1.70;;
14994;SDS011;7593;49.006;8.372;2023-12-28T05:00:50;3.38;;;1.92;;
14994;SDS011;7593;49.006;8.372;2023-12-28T05:03:17;2.65;;;1.85;;
14994;SDS011;7593;49.006;8.372;2023-12-28T05:05:43;2.50;;;1.70;;
14994;SDS011;7593;49.006;8.372;2023-12-28T05:08:10;4.40;;;2.17;;
14994;SDS011;7593;49.006;8.372;2023-12-28T05:10:37;4.38;;;2.13;;
14994;SDS011;7593;49.006;8.372;2023-12-28T05:13:04;2.55;;;2.03;;
14994;SDS011;7593;49.006;8.372;2023-12-28T05:15:32;3.38;;;2.30;;
14994;SDS011;7593;49.006;8.372;2023-12-28T05:17:59;3.03;;;2.20;;
14994;SDS011;7593;49.006;8.372;2023-12-28T05:20:25;2.28;;;2.00;;
14994;SDS011;7593;49.006;8.372;2023-12-28T05:22:52;4.30;;;2.35;;
14994;SDS011;7593;49.006;8.372;2023-12-28T05:25:19;3.58;;;2.67;;
14994;SDS011;7593;49.006;8.372;2023-12-28T05:27:45;3.42;;;2.00;;
14994;SDS011;7593;49.006;8.372;2023-12-28T05:30:12;2.75;;;2.03;;
14994;SDS011;7593;49.006;8.372;2023-12-28T05:32:40;3.38;;;2.15;;
14994;SDS011;7593;49.006;8.372;2023-12-28T05:35:07;3.05;;;2.20;;
14994;SDS011;7593;49.006;8.372;2023-12-28T05:37:34;2.40;;;2.20;;
14994;SDS011;7593;49.006;8.372;2023-12-28T05:40:01;2.92;;;2.20;;
14994;SDS011;7593;49.006;8.372;2023-12-28T05:42:27;2.78;;;2.00;;
14994;SDS011;7593;49.006;8.372;2023-12-28T05:44:54;3.88;;;2.13;;
14994;SDS011;7593;49.006;8.372;2023-12-28T05:47:21;3.17;;;2.30;;
14994;SDS011;7593;49.006;8.372;2023-12-28T05:49:50;5.35;;;2.20;;
14994;SDS011;7593;49.006;8.372;2023-12-28T05:52:17;2.75;;;2.17;;
14994;SDS011;7593;49.006;8.372;2023-12-28T05:54:44;2.60;;;2.17;;
14994;SDS011;7593;49.006;8.372;2023-12-28T05:57:13;5.85;;;2.42;;
14994;SDS011;7593;49.006;8.372;2023-12-28T05:59:39;3.53;;;2.20;;
14994;SDS011;7593;49.006;8.372;2023-12-28T06:02:06;4.20;;;2.20;;
14994;SDS011;7593;49.006;8.372;2023-12-28T06:04:33;4.38;;;2.20;;
14994;SDS011;7593;49.006;8.372;2023-12-28T06:07:01;2.95;;;2.00;;
14994;SDS011;7593;49.006;8.372;2023-12-28T06:09:28;2.45;;;1.95;;
14994;SDS011;7593;49.006;8.372;2023-12-28T06:11:55;4.05;;;2.15;;
14994;SDS011;7593;49.006;8.372;2023-12-28T06:14:22;4.38;;;2.20;;
14994;SDS011;7593;49.006;8.372;2023-12-28T06:16:48;2.85;;;1.98;;
14994;SDS011;7593;49.006;8.372;2023-12-28T06:19:15;2.30;;;1.83;;
14994;SDS011;7593;49.006;8.372;2023-12-28T06:21:42;2.85;;;2.08;;
14994;SDS011;7593;49.006;8.372;2023-12-28T06:24:10;2.20;;;1.85;;
14994;SDS011;7593;49.006;8.372;2023-12-28T06:26:38;2.13;;;1.83;;
14994;SDS011;7593;49.006;8.372;2023-12-28T06:29:06;3.20;;;1.70;;
14994;SDS011;7593;49.006;8.372;2023-12-28T06:31:33;2.30;;;1.80;;
14994;SDS011;7593;49.006;8.372;2023-12-28T06:34:01;2.08;;;1.88;;
14994;SDS011;7593;49.006;8.372;2023-12-28T06:36:28;2.85;;;1.70;;
14994;SDS011;7593;49.006;8.372;2023-12-28T06:38:54;2.72;;;2.10;;
14994;SDS011;7593;49.006;8.372;2023-12-28T06:41:22;4.25;;;2.63;;
14994;SDS011;7593;49.006;8.372;2023-12-28T06:43:49;2.92;;;2.00;;
14994;SDS011;7593;49.006;8.372;2023-12-28T06:46:16;3.83;;;2.60;;
14994;SDS011;7593;49.006;8.372;2023-12-28T06:48:43;4.07;;;2.20;;
14994;SDS011;7593;49.006;8.372;2023-12-28T06:51:09;2.20;;;2.00;;
14994;SDS011;7593;49.006;8.372;2023-12-28T06:53:41;3.45;;;1.90;;
14994;SDS011;7593;49.006;8.372;2023-12-28T06:56:09;3.45;;;2.08;;
14994;SDS011;7593;49.006;8.372;2023-12-28T06:58:37;2.40;;;1.90;;
14994;SDS011;7593;49.006;8.372;2023-12-28T07:01:03;2.50;;;2.20;;
14994;SDS011;7593;49.006;8.372;2023-12-28T07:03:30;5.40;;;3.53;;
14994;SDS011;7593;49.006;8.372;2023-12-28T07:05:57;5.88;;;4.00;;
14994;SDS011;7593;49.006;8.372;2023-12-28T07:08:24;4.00;;;2.90;;
14994;SDS011;7593;49.006;8.372;2023-12-28T07:10:51;5.88;;;3.25;;
14994;SDS011;7593;49.006;8.372;2023-12-28T07:13:18;4.63;;;2.70;;
14994;SDS011;7593;49.006;8.372;2023-12-28T07:15:46;3.85;;;2.50;;
14994;SDS011;7593;49.006;8.372;2023-12-28T07:18:13;3.25;;;2.63;;
14994;SDS011;7593;49.006;8.372;2023-12-28T07:20:39;5.38;;;2.28;;
14994;SDS011;7593;49.006;8.372;2023-12-28T07:23:06;6.00;;;2.30;;
14994;SDS011;7593;49.006;8.372;2023-12-28T07:25:33;4.57;;;2.40;;
14994;SDS011;7593;49.006;8.372;2023-12-28T07:28:00;3.20;;;2.63;;
14994;SDS011;7593;49.006;8.372;2023-12-28T07:30:27;4.80;;;2.55;;
14994;SDS011;7593;49.006;8.372;2023-12-28T07:32:56;3.95;;;2.45;;
14994;SDS011;7593;49.006;8.372;2023-12-28T07:35:22;3.05;;;2.40;;
14994;SDS011;7593;49.006;8.372;2023-12-28T07:37:49;4.47;;;2.58;;
14994;SDS011;7593;49.006;8.372;2023-12-28T07:40:16;4.38;;;2.42;;
14994;SDS011;7593;49.006;8.372;2023-12-28T07:42:43;4.70;;;2.67;;
14994;SDS011;7593;49.006;8.372;2023-12-28T07:45:09;3.42;;;2.30;;
14994;SDS011;7593;49.006;8.372;2023-12-28T07:47:36;4.38;;;2.80;;
14994;SDS011;7593;49.006;8.372;2023-12-28T07:50:05;3.55;;;2.60;;
14994;SDS011;7593;49.006;8.372;2023-12-28T07:52:32;2.47;;;2.28;;
14994;SDS011;7593;49.006;8.372;2023-12-28T07:54:59;5.15;;;2.50;;
14994;SDS011;7593;49.006;8.372;2023-12-28T07:57:25;4.47;;;2.83;;
14994;SDS011;7593;49.006;8.372;2023-12-28T07:59:52;4.13;;;2.20;;
14994;SDS011;7593;49.006;8.372;2023-12-28T08:02:19;2.63;;;2.28;;
14994;SDS011;7593;49.006;8.372;2023-12-28T08:04:45;3.75;;;2.58;;
14994;SDS011;7593;49.006;8.372;2023-12-28T08:07:15;3.83;;;2.67;;
14994;SDS011;7593;49.006;8.372;2023-12-28T08:09:41;3.67;;;2.70;;
14994;SDS011;7593;49.006;8.372;2023-12-28T08:12:08;2.95;;;2.40;;
14994;SDS011;7593;49.006;8.372;2023-12-28T08:14:35;4.80;;;2.70;;
14994;SDS011;7593;49.006;8.372;2023-12-28T08:17:02;3.10;;;2.38;;
14994;SDS011;7593;49.006;8.372;2023-12-28T08:19:29;3.83;;;2.42;;
14994;SDS011;7593;49.006;8.372;2023-12-28T08:21:56;3.63;;;2.60;;
14994;SDS011;7593;49.006;8.372;2023-12-28T08:24:24;4.63;;;2.08;;
14994;SDS011;7593;49.006;8.372;2023-12-28T08:26:51;4.70;;;2.72;;
14994;SDS011;7593;49.006;8.372;2023-12-28T08:29:18;7.22;;;2.80;;
14994;SDS011;7593;49.006;8.372;2023-12-28T08:31:44;3.13;;;2.50;;
14994;SDS011;7593;49.006;8.372;2023-12-28T08:34:11;4.03;;;2.40;;
14994;SDS011;7593;49.006;8.372;2023-12-28T08:36:38;4.43;;;2.28;;
14994;SDS011;7593;49.006;8.372;2023-12-28T08:39:04;6.25;;;4.28;;
14994;SDS011;7593;49.006;8.372;2023-12-28T08:41:33;8.82;;;5.55;;
14994;SDS011;7593;49.006;8.372;2023-12-28T08:44:00;4.90;;;3.33;;
14994;SDS011;7593;49.006;8.372;2023-12-28T08:46:26;6.30;;;2.67;;
14994;SDS011;7593;49.006;8.372;2023-12-28T08:48:53;4.93;;;2.78;;
14994;SDS011;7593;49.006;8.372;2023-12-28T08:51:21;3.53;;;2.97;;
14994;SDS011;7593;49.006;8.372;2023-12-28T08:53:48;4.43;;;2.88;;
14994;SDS011;7593;49.006;8.372;2023-12-28T08:56:19;4.63;;;2.95;;
14994;SDS011;7593;49.006;8.372;2023-12-28T08:58:48;3.72;;;3.10;;
14994;SDS011;7593;49.006;8.372;2023-12-28T09:01:17;6.25;;;3.40;;
14994;SDS011;7593;49.006;8.372;2023-12-28T09:03:45;4.45;;;3.78;;
14994;SDS011;7593;49.006;8.372;2023-12-28T09:06:13;6.05;;;3.95;;
14994;SDS011;7593;49.006;8.372;2023-12-28T09:08:41;3.40;;;3.10;;
14994;SDS011;7593;49.006;8.372;2023-12-28T09:11:09;4.53;;;3.33;;
14994;SDS011;7593;49.006;8.372;2023-12-28T09:13:36;3.70;;;3.13;;
14994;SDS011;7593;49.006;8.372;2023-12-28T09:16:04;4.13;;;3.42;;
14994;SDS011;7593;49.006;8.372;2023-12-28T09:18:32;4.25;;;3.10;;
14994;SDS011;7593;49.006;8.372;2023-12-28T09:20:58;4.93;;;3.15;;
14994;SDS011;7593;49.006;8.372;2023-12-28T09:23:25;4.90;;;3.55;;
14994;SDS011;7593;49.006;8.372;2023-12-28T09:25:52;4.35;;;3.30;;
14994;SDS011;7593;49.006;8.372;2023-12-28T09:28:18;4.10;;;3.17;;
14994;SDS011;7593;49.006;8.372;2023-12-28T09:30:45;4.75;;;3.25;;
14994;SDS011;7593;49.006;8.372;2023-12-28T09:33:13;4.40;;;2.85;;
14994;SDS011;7593;49.006;8.372;2023-12-28T09:35:40;4.72;;;2.92;;
14994;SDS011;7593;49.006;8.372;2023-12-28T09:38:07;3.53;;;2.92;;
14994;SDS011;7593;49.006;8.372;2023-12-28T09:40:34;4.63;;;3.25;;
14994;SDS011;7593;49.006;8.372;2023-12-28T09:43:03;5.88;;;3.13;;
14994;SDS011;7593;49.006;8.372;2023-12-28T09:45:38;5.45;;;3.00;;
14994;SDS011;7593;49.006;8.372;2023-12-28T09:48:06;7.72;;;3.03;;
14994;SDS011;7593;49.006;8.372;2023-12-28T09:50:34;5.75;;;3.70;;
14994;SDS011;7593;49.006;8.372;2023-12-28T09:53:01;7.35;;;3.00;;
14994;SDS011;7593;49.006;8.372;2023-12-28T09:55:28;3.58;;;2.63;;
14994;SDS011;7593;49.006;8.372;2023-12-28T09:57:55;4.55;;;3.10;;
14994;SDS011;7593;49.006;8.372;2023-12-28T10:00:24;5.00;;;2.80;;
14994;SDS011;7593;49.006;8.372;2023-12-28T10:02:51;5.63;;;2.63;;
14994;SDS011;7593;49.006;8.372;2023-12-28T10:05:18;3.40;;;2.50;;
14994;SDS011;7593;49.006;8.372;2023-12-28T10:07:47;3.35;;;2.78;;
14994;SDS011;7593;49.006;8.372;2023-12-28T10:10:13;5.95;;;2.60;;
14994;SDS011;7593;49.006;8.372;2023-12-28T10:12:41;4.30;;;2.60;;
14994;SDS011;7593;49.006;8.372;2023-12-28T10:15:08;4.78;;;2.83;;
14994;SDS011;7593;49.006;8.372;2023-12-28T10:17:35;5.57;;;2.95;;
14994;SDS011;7593;49.006;8.372;2023-12-28T10:20:03;4.18;;;2.50;;
14994;SDS011;7593;49.006;8.372;2023-12-28T10:22:33;5.07;;;2.80;;
14994;SDS011;7593;49.006;8.372;2023-12-28T10:25:02;2.80;;;2.40;;
14994;SDS011;7593;49.006;8.372;2023-12-28T10:27:29;4.40;;;2.75;;
14994;SDS011;7593;49.006;8.372;2023-12-28T10:29:56;4.03;;;2.72;;
14994;SDS011;7593;49.006;8.372;2023-12-28T10:32:23;3.90;;;2.78;;
14994;SDS011;7593;49.006;8.372;2023-12-28T10:34:51;3.38;;;2.72;;
14994;SDS011;7593;49.006;8.372;2023-12-28T10:37:19;3.47;;;2.70;;
14994;SDS011;7593;49.006;8.372;2023-12-28T10:39:47;4.80;;;2.65;;
14994;SDS011;7593;49.006;8.372;2023-12-28T10:42:21;4.65;;;2.70;;
14994;SDS011;7593;49.006;8.372;2023-12-28T10:44:57;3.72;;;2.95;;
14994;SDS011;7593;49.006;8.372;2023-12-28T10:47:29;3.95;;;3.10;;
14994;SDS011;7593;49.006;8.372;2023-12-28T10:49:58;4.75;;;3.40;;
14994;SDS011;7593;49.006;8.372;2023-12-28T10:52:30;6.18;;;3.03;;
14994;SDS011;7593;49.006;8.372;2023-12-28T10:55:00;5.38;;;3.20;;
14994;SDS011;7593;49.006;8.372;2023-12-28T10:57:44;4.07;;;3.25;;
14994;SDS011;7593;49.006;8.372;2023-12-28T11:00:22;4.82;;;3.30;;
14994;SDS011;7593;49.006;8.372;2023-12-28T11:02:52;4.80;;;3.60;;
14994;SDS011;7593;49.006;8.372;2023-12-28T11:05:22;4.55;;;3.30;;
14994;SDS011;7593;49.006;8.372;2023-12-28T11:07:49;4.05;;;3.47;;
14994;SDS011;7593;49.006;8.372;2023-12-28T11:10:21;5.15;;;3.40;;
14994;SDS011;7593;49.006;8.372;2023-12-28T11:12:51;4.82;;;3.50;;
14994;SDS011;7593;49.006;8.372;2023-12-28T11:15:19;4.03;;;3.40;;
14994;SDS011;7593;49.006;8.372;2023-12-28T11:17:48;3.85;;;3.35;;
14994;SDS011;7593;49.006;8.372;2023-12-28T11:20:15;5.82;;;3.80;;
14994;SDS011;7593;49.006;8.372;2023-12-28T11:22:42;5.85;;;3.38;;
14994;SDS011;7593;49.006;8.372;2023-12-28T11:25:16;4.63;;;3.42;;
14994;SDS011;7593;49.006;8.372;2023-12-28T11:27:43;5.20;;;3.38;;
14994;SDS011;7593;49.006;8.372;2023-12-28T11:30:13;5.10;;;3.45;;
14994;SDS011;7593;49.006;8.372;2023-12-28T11:32:40;6.63;;;3.30;;
14994;SDS011;7593;49.006;8.372;2023-12-28T11:35:10;4.03;;;3.42;;
14994;SDS011;7593;49.006;8.372;2023-12-28T11:37:38;4.28;;;3.35;;
14994;SDS011;7593;49.006;8.372;2023-12-28T11:40:12;8.23;;;6.28;;
14994;SDS011;7593;49.006;8.372;2023-12-28T11:42:49;4.38;;;3.53;;
14994;SDS011;7593;49.006;8.372;2023-12-28T11:45:18;4.38;;;3.97;;
14994;SDS011;7593;49.006;8.372;2023-12-28T11:47:58;5.82;;;3.42;;
14994;SDS011;7593;49.006;8.372;2023-12-28T11:50:25;4.32;;;3.30;;
14994;SDS011;7593;49.006;8.372;2023-12-28T11:52:52;4.20;;;3.58;;
14994;SDS011;7593;49.006;8.372;2023-12-28T11:55:20;5.82;;;3.95;;
14994;SDS011;7593;49.006;8.372;2023-12-28T11:57:47;7.10;;;4.10;;
14994;SDS011;7593;49.006;8.372;2023-12-28T12:00:14;6.82;;;3.75;;
14994;SDS011;7593;49.006;8.372;2023-12-28T12:02:44;6.03;;;4.00;;
14994;SDS011;7593;49.006;8.372;2023-12-28T12:05:11;6.03;;;3.78;;
14994;SDS011;7593;49.006;8.372;2023-12-28T12:07:38;5.55;;;4.00;;
14994;SDS011;7593;49.006;8.372;2023-12-28T12:10:05;5.88;;;3.97;;
14994;SDS011;7593;49.006;8.372;2023-12-28T12:12:32;5.55;;;3.83;;
14994;SDS011;7593;49.006;8.372;2023-12-28T12:14:59;3.95;;;3.47;;
14994;SDS011;7593;49.006;8.372;2023-12-28T12:17:26;4.53;;;3.45;;
14994;SDS011;7593;49.006;8.372;2023-12-28T12:19:54;5.20;;;3.33;;
14994;SDS011;7593;49.006;8.372;2023-12-28T12:22:22;5.40;;;4.00;;
14994;SDS011;7593;49.006;8.372;2023-12-28T12:24:49;3.95;;;3.30;;
14994;SDS011;7593;49.006;8.372;2023-12-28T12:27:18;5.45;;;3.78;;
14994;SDS011;7593;49.006;8.372;2023-12-28T12:29:45;4.40;;;3.88;;
14994;SDS011;7593;49.006;8.372;2023-12-28T12:32:11;3.70;;;3.15;;
14994;SDS011;7593;49.006;8.372;2023-12-28T12:34:38;4.25;;;3.28;;
14994;SDS011;7593;49.006;8.372;2023-12-28T12:37:07;4.05;;;3.15;;
14994;SDS011;7593;49.006;8.372;2023-12-28T12:39:34;3.75;;;3.30;;
14994;SDS011;7593;49.006;8.372;2023-12-28T12:42:02;4.55;;;3.40;;
14994;SDS011;7593;49.006;8.372;2023-12-28T12:44:29;5.88;;;4.03;;
14994;SDS011;7593;49.006;8.372;2023-12-28T12:46:56;5.43;;;3.50;;
14994;SDS011;7593;49.006;8.372;2023-12-28T12:49:24;6.35;;;4.70;;
14994;SDS011;7593;49.006;8.372;2023-12-28T12:51:51;4.28;;;3.88;;
14994;SDS011;7593;49.006;8.372;2023-12-28T12:54:19;4.07;;;3.17;;
14994;SDS011;7593;49.006;8.372;2023-12-28T12:56:46;4.25;;;3.33;;
14994;SDS011;7593;49.006;8.372;2023-12-28T12:59:13;4.57;;;3.38;;
14994;SDS011;7593;49.006;8.372;2023-12-28T13:01:42;3.63;;;2.92;;
14994;SDS011;7593;49.006;8.372;2023-12-28T13:04:09;4.38;;;3.50;;
14994;SDS011;7593;49.006;8.372;2023-12-28T13:06:36;6.05;;;3.65;;
14994;SDS011;7593;49.006;8.372;2023-12-28T13:09:03;3.55;;;2.90;;
14994;SDS011;7593;49.006;8.372;2023-12-28T13:11:33;5.18;;;3.97;;
14994;SDS011;7593;49.006;8.372;2023-12-28T13:14:00;5.70;;;3.40;;
14994;SDS011;7593;49.006;8.372;2023-12-28T13:16:26;3.75;;;3.33;;
14994;SDS011;7593;49.006;8.372;2023-12-28T13:18:53;5.57;;;4.07;;
14994;SDS011;7593;49.006;8.372;2023-12-28T13:21:20;5.30;;;4.72;;
14994;SDS011;7593;49.006;8.372;2023-12-28T13:23:47;6.00;;;4.45;;
14994;SDS011;7593;49.006;8.372;2023-12-28T13:26:13;4.82;;;3.47;;
14994;SDS011;7593;49.006;8.372;2023-12-28T13:28:41;4.90;;;3.65;;
14994;SDS011;7593;49.006;8.372;2023-12-28T13:31:08;3.55;;;3.22;;
14994;SDS011;7593;49.006;8.372;2023-12-28T13:33:35;3.90;;;3.28;;
14994;SDS011;7593;49.006;8.372;2023-12-28T13:36:02;3.80;;;3.40;;
14994;SDS011;7593;49.006;8.372;2023-12-28T13:38:29;4.95;;;3.33;;
14994;SDS011;7593;49.006;8.372;2023-12-28T13:40:56;4.45;;;3.50;;
14994;SDS011;7593;49.006;8.372;2023-12-28T13:43:22;5.18;;;3.58;;
14994;SDS011;7593;49.006;8.372;2023-12-28T13:45:50;5.38;;;3.78;;
14994;SDS011;7593;49.006;8.372;2023-12-28T13:48:17;4.85;;;4.10;;
14994;SDS011;7593;49.006;8.372;2023-12-28T13:50:44;5.47;;;4.20;;
14994;SDS011;7593;49.006;8.372;2023-12-28T13:53:10;7.65;;;4.10;;
14994;SDS011;7593;49.006;8.372;2023-12-28T13:55:37;4.85;;;3.80;;
14994;SDS011;7593;49.006;8.372;2023-12-28T13:58:04;5.45;;;4.18;;
14994;SDS011;7593;49.006;8.372;2023-12-28T14:00:31;4.50;;;4.10;;
14994;SDS011;7593;49.006;8.372;2023-12-28T14:02:59;7.15;;;3.95;;
14994;SDS011;7593;49.006;8.372;2023-12-28T14:05:25;5.72;;;4.22;;
14994;SDS011;7593;49.006;8.372;2023-12-28T14:07:52;5.50;;;4.03;;
14994;SDS011;7593;49.006;8.372;2023-12-28T14:10:19;4.68;;;4.03;;
14994;SDS011;7593;49.006;8.372;2023-12-28T14:12:49;6.22;;;4.40;;
14994;SDS011;7593;49.006;8.372;2023-12-28T14:15:16;4.47;;;4.07;;
14994;SDS011;7593;49.006;8.372;2023-12-28T14:17:43;5.43;;;4.35;;
14994;SDS011;7593;49.006;8.372;2023-12-28T14:20:11;6.20;;;4.20;;
14994;SDS011;7593;49.006;8.372;2023-12-28T14:22:38;5.20;;;4.45;;
14994;SDS011;7593;49.006;8.372;2023-12-28T14:25:06;5.03;;;4.35;;
14994;SDS011;7593;49.006;8.372;2023-12-28T14:27:36;5.60;;;4.32;;
14994;SDS011;7593;49.006;8.372;2023-12-28T14:30:04;6.40;;;5.00;;
14994;SDS011;7593;49.006;8.372;2023-12-28T14:32:34;5.25;;;4.57;;
14994;SDS011;7593;49.006;8.372;2023-12-28T14:35:02;5.68;;;4.38;;
14994;SDS011;7593;49.006;8.372;2023-12-28T14:37:30;5.57;;;4.28;;
14994;SDS011;7593;49.006;8.372;2023-12-28T14:39:57;7.50;;;4.68;;
14994;SDS011;7593;49.006;8.372;2023-12-28T14:42:24;6.35;;;4.50;;
14994;SDS011;7593;49.006;8.372;2023-12-28T14:44:51;6.35;;;4.38;;
14994;SDS011;7593;49.006;8.372;2023-12-28T14:47:17;5.55;;;4.53;;
14994;SDS011;7593;49.006;8.372;2023-12-28T14:49:44;5.18;;;4.63;;
14994;SDS011;7593;49.006;8.372;2023-12-28T14:52:11;5.13;;;4.32;;
14994;SDS011;7593;49.006;8.372;2023-12-28T14:54:39;6.03;;;4.35;;
14994;SDS011;7593;49.006;8.372;2023-12-28T14:57:05;6.47;;;4.30;;
14994;SDS011;7593;49.006;8.372;2023-12-28T14:59:32;5.28;;;4.53;;
14994;SDS011;7593;49.006;8.372;2023-12-28T15:01:59;7.70;;;4.35;;